Charter Quote
Worldwide +1-877-727-2538 Call
Select Language Lang
SAFETY RELIABILITY EXPERIENCE

Wall Street Heliport (KJRB) - Jet Charter Services

AIRPORT INFORMATION
ICAOKJRB
LOCATIONNew York City, NY, United States
FACILITY TYPEAIRPORT
Runway Length (ft) Width (ft) Surface Type Elevation (ft)
Helipad 0 0 ASPH 7.00000

At Paramount Business Jets you can hire chartered private jets to and from Wall Street Heliport with as little as 4 hours of notice. All flights booked via Paramount Business Jets are operated by certified direct air carriers that meet and exceed the FAA part 135 and 121 protocol or a foreign equivalent safety authority. Furthermore, Paramount Business Jets subscribes to ARGUS for their third party safety checks of operators, aircraft, and crews prior each and every flight to and from Wall Street Heliport and worldwide.

  • Quote a trip using Wall Street Heliport or call us 24/7 - 365 days a year at +1-877-727-2538.
Questions? Call +1-877-727-2538

METAR Weather Data at Wall Street Heliport, KJRB

STATIONKJRB
OBSERVEDTue Mar 26, 06:56 UTC
NOWTue Mar 26, 07:59 UTC
AGE63 min ago
WINDNE at 8 mph, gusting to 23 mph
VISIBILITY10 miles
CLOUDSclear skies
TEMP39°F (4°C)
WIND CHILL33°F (1°C)
DEWPT18°F (-8°C)
HUMIDITY42%
BAROMETER1020 hPa (30.13 in Hg)
METARKJRB 260656Z AUTO 05007G20KT 10SM CLR 04/M08 A3013 RMK AO2 SLP203 T00441083

Call us on +1-877-727-2538 (24 Hours) to Hire a Private Jet or Get a Quick Quote.

Find Airports Near any Location

Processing
...